sensor_id;sensor_type;location;lat;lon;timestamp;P1;durP1;ratioP1;P2;durP2;ratioP2
4533;SDS011;2279;51.448;7.306;2023-06-22T00:01:04;6.77;;;5.80;;
4533;SDS011;2279;51.448;7.306;2023-06-22T00:03:30;7.00;;;6.30;;
4533;SDS011;2279;51.448;7.306;2023-06-22T00:05:56;7.30;;;6.60;;
4533;SDS011;2279;51.448;7.306;2023-06-22T00:08:21;9.10;;;6.20;;
4533;SDS011;2279;51.448;7.306;2023-06-22T00:10:47;7.07;;;6.10;;
4533;SDS011;2279;51.448;7.306;2023-06-22T00:13:14;7.73;;;7.00;;
4533;SDS011;2279;51.448;7.306;2023-06-22T00:15:41;9.60;;;8.40;;
4533;SDS011;2279;51.448;7.306;2023-06-22T00:18:07;8.07;;;7.27;;
4533;SDS011;2279;51.448;7.306;2023-06-22T00:20:33;8.37;;;6.80;;
4533;SDS011;2279;51.448;7.306;2023-06-22T00:23:02;9.30;;;7.50;;
4533;SDS011;2279;51.448;7.306;2023-06-22T00:25:33;10.83;;;6.67;;
4533;SDS011;2279;51.448;7.306;2023-06-22T00:27:59;9.00;;;6.80;;
4533;SDS011;2279;51.448;7.306;2023-06-22T00:30:25;7.37;;;6.33;;
4533;SDS011;2279;51.448;7.306;2023-06-22T00:32:51;8.50;;;7.60;;
4533;SDS011;2279;51.448;7.306;2023-06-22T00:35:16;6.47;;;5.57;;
4533;SDS011;2279;51.448;7.306;2023-06-22T00:37:42;7.63;;;6.43;;
4533;SDS011;2279;51.448;7.306;2023-06-22T00:40:09;11.90;;;6.80;;
4533;SDS011;2279;51.448;7.306;2023-06-22T00:42:37;9.13;;;6.40;;
4533;SDS011;2279;51.448;7.306;2023-06-22T00:45:04;6.93;;;6.33;;
4533;SDS011;2279;51.448;7.306;2023-06-22T00:47:30;8.70;;;7.80;;
4533;SDS011;2279;51.448;7.306;2023-06-22T00:49:56;10.20;;;7.63;;
4533;SDS011;2279;51.448;7.306;2023-06-22T00:52:22;6.60;;;6.00;;
4533;SDS011;2279;51.448;7.306;2023-06-22T00:54:52;8.27;;;7.00;;
4533;SDS011;2279;51.448;7.306;2023-06-22T00:57:18;7.13;;;6.53;;
4533;SDS011;2279;51.448;7.306;2023-06-22T00:59:44;9.60;;;7.23;;
4533;SDS011;2279;51.448;7.306;2023-06-22T01:02:11;7.40;;;6.70;;
4533;SDS011;2279;51.448;7.306;2023-06-22T01:04:37;8.17;;;6.07;;
4533;SDS011;2279;51.448;7.306;2023-06-22T01:12:16;8.87;;;6.00;;
4533;SDS011;2279;51.448;7.306;2023-06-22T01:14:47;12.00;;;7.10;;
4533;SDS011;2279;51.448;7.306;2023-06-22T01:17:15;7.50;;;6.70;;
4533;SDS011;2279;51.448;7.306;2023-06-22T01:19:45;12.60;;;6.60;;
4533;SDS011;2279;51.448;7.306;2023-06-22T01:22:19;8.47;;;7.63;;
4533;SDS011;2279;51.448;7.306;2023-06-22T01:30:06;7.83;;;6.87;;
4533;SDS011;2279;51.448;7.306;2023-06-22T01:32:35;7.67;;;6.90;;
4533;SDS011;2279;51.448;7.306;2023-06-22T01:35:03;9.30;;;7.80;;
4533;SDS011;2279;51.448;7.306;2023-06-22T01:37:29;10.03;;;7.20;;
4533;SDS011;2279;51.448;7.306;2023-06-22T01:39:57;10.57;;;7.07;;
4533;SDS011;2279;51.448;7.306;2023-06-22T01:42:24;10.23;;;8.80;;
4533;SDS011;2279;51.448;7.306;2023-06-22T01:44:50;11.23;;;7.83;;
4533;SDS011;2279;51.448;7.306;2023-06-22T01:47:17;8.73;;;7.93;;
4533;SDS011;2279;51.448;7.306;2023-06-22T01:49:43;12.20;;;8.23;;
4533;SDS011;2279;51.448;7.306;2023-06-22T01:52:09;8.43;;;7.63;;
4533;SDS011;2279;51.448;7.306;2023-06-22T01:54:35;9.40;;;7.27;;
4533;SDS011;2279;51.448;7.306;2023-06-22T01:57:01;7.73;;;7.03;;
4533;SDS011;2279;51.448;7.306;2023-06-22T01:59:43;9.03;;;8.13;;
4533;SDS011;2279;51.448;7.306;2023-06-22T02:02:13;9.50;;;8.60;;
4533;SDS011;2279;51.448;7.306;2023-06-22T02:04:45;9.47;;;8.13;;
4533;SDS011;2279;51.448;7.306;2023-06-22T02:07:12;11.43;;;8.20;;
4533;SDS011;2279;51.448;7.306;2023-06-22T02:09:39;8.20;;;6.63;;
4533;SDS011;2279;51.448;7.306;2023-06-22T02:12:08;8.00;;;6.23;;
4533;SDS011;2279;51.448;7.306;2023-06-22T02:14:35;11.90;;;7.23;;
4533;SDS011;2279;51.448;7.306;2023-06-22T02:17:02;9.50;;;7.07;;
4533;SDS011;2279;51.448;7.306;2023-06-22T02:19:32;8.97;;;8.17;;
4533;SDS011;2279;51.448;7.306;2023-06-22T02:21:58;10.73;;;8.43;;
4533;SDS011;2279;51.448;7.306;2023-06-22T02:24:24;8.27;;;7.47;;
4533;SDS011;2279;51.448;7.306;2023-06-22T02:26:50;10.23;;;9.07;;
4533;SDS011;2279;51.448;7.306;2023-06-22T02:29:16;10.40;;;8.20;;
4533;SDS011;2279;51.448;7.306;2023-06-22T02:31:42;9.70;;;8.70;;
4533;SDS011;2279;51.448;7.306;2023-06-22T02:34:08;9.03;;;8.17;;
4533;SDS011;2279;51.448;7.306;2023-06-22T02:36:34;11.67;;;8.17;;
4533;SDS011;2279;51.448;7.306;2023-06-22T02:39:00;8.90;;;7.77;;
4533;SDS011;2279;51.448;7.306;2023-06-22T02:41:28;10.90;;;8.90;;
4533;SDS011;2279;51.448;7.306;2023-06-22T02:43:54;10.80;;;9.80;;
4533;SDS011;2279;51.448;7.306;2023-06-22T02:46:20;9.37;;;8.13;;
4533;SDS011;2279;51.448;7.306;2023-06-22T02:48:46;10.00;;;8.10;;
4533;SDS011;2279;51.448;7.306;2023-06-22T02:51:12;11.73;;;9.23;;
4533;SDS011;2279;51.448;7.306;2023-06-22T02:53:38;12.17;;;10.00;;
4533;SDS011;2279;51.448;7.306;2023-06-22T02:56:04;10.13;;;9.03;;
4533;SDS011;2279;51.448;7.306;2023-06-22T02:58:30;13.50;;;9.77;;
4533;SDS011;2279;51.448;7.306;2023-06-22T03:01:03;13.03;;;10.00;;
4533;SDS011;2279;51.448;7.306;2023-06-22T03:03:29;14.17;;;10.80;;
4533;SDS011;2279;51.448;7.306;2023-06-22T03:05:55;11.30;;;10.03;;
4533;SDS011;2279;51.448;7.306;2023-06-22T03:08:21;14.80;;;9.73;;
4533;SDS011;2279;51.448;7.306;2023-06-22T03:10:47;12.13;;;9.73;;
4533;SDS011;2279;51.448;7.306;2023-06-22T03:13:13;10.07;;;9.03;;
4533;SDS011;2279;51.448;7.306;2023-06-22T03:15:39;12.07;;;9.50;;
4533;SDS011;2279;51.448;7.306;2023-06-22T03:18:05;11.60;;;9.57;;
4533;SDS011;2279;51.448;7.306;2023-06-22T03:20:31;10.73;;;9.33;;
4533;SDS011;2279;51.448;7.306;2023-06-22T03:22:58;13.67;;;11.67;;
4533;SDS011;2279;51.448;7.306;2023-06-22T03:25:25;10.53;;;9.53;;
4533;SDS011;2279;51.448;7.306;2023-06-22T03:27:51;10.50;;;9.60;;
4533;SDS011;2279;51.448;7.306;2023-06-22T03:30:16;9.50;;;8.63;;
4533;SDS011;2279;51.448;7.306;2023-06-22T03:32:42;10.87;;;9.77;;
4533;SDS011;2279;51.448;7.306;2023-06-22T03:35:08;9.03;;;8.20;;
4533;SDS011;2279;51.448;7.306;2023-06-22T03:37:38;10.23;;;9.13;;
4533;SDS011;2279;51.448;7.306;2023-06-22T03:40:05;15.73;;;11.67;;
4533;SDS011;2279;51.448;7.306;2023-06-22T03:42:31;14.27;;;12.47;;
4533;SDS011;2279;51.448;7.306;2023-06-22T03:44:57;14.57;;;12.93;;
4533;SDS011;2279;51.448;7.306;2023-06-22T03:47:23;16.77;;;13.87;;
4533;SDS011;2279;51.448;7.306;2023-06-22T03:49:49;14.20;;;12.80;;
4533;SDS011;2279;51.448;7.306;2023-06-22T03:52:15;16.77;;;14.40;;
4533;SDS011;2279;51.448;7.306;2023-06-22T03:54:41;14.80;;;12.93;;
4533;SDS011;2279;51.448;7.306;2023-06-22T03:57:07;16.00;;;14.30;;
4533;SDS011;2279;51.448;7.306;2023-06-22T03:59:33;16.50;;;14.77;;
4533;SDS011;2279;51.448;7.306;2023-06-22T04:01:59;17.00;;;14.30;;
4533;SDS011;2279;51.448;7.306;2023-06-22T04:04:25;17.73;;;14.37;;
4533;SDS011;2279;51.448;7.306;2023-06-22T04:06:51;18.57;;;13.67;;
4533;SDS011;2279;51.448;7.306;2023-06-22T04:09:17;16.30;;;14.00;;
4533;SDS011;2279;51.448;7.306;2023-06-22T04:11:43;16.73;;;14.93;;
4533;SDS011;2279;51.448;7.306;2023-06-22T04:14:08;19.60;;;13.50;;
4533;SDS011;2279;51.448;7.306;2023-06-22T04:16:34;15.30;;;13.80;;
4533;SDS011;2279;51.448;7.306;2023-06-22T04:19:00;16.20;;;14.50;;
4533;SDS011;2279;51.448;7.306;2023-06-22T04:21:26;15.00;;;13.37;;
4533;SDS011;2279;51.448;7.306;2023-06-22T04:23:52;16.60;;;13.70;;
4533;SDS011;2279;51.448;7.306;2023-06-22T04:26:18;17.93;;;14.33;;
4533;SDS011;2279;51.448;7.306;2023-06-22T04:28:46;15.10;;;13.30;;
4533;SDS011;2279;51.448;7.306;2023-06-22T04:31:16;21.03;;;14.70;;
4533;SDS011;2279;51.448;7.306;2023-06-22T04:33:44;16.80;;;13.73;;
4533;SDS011;2279;51.448;7.306;2023-06-22T04:36:10;15.90;;;14.00;;
4533;SDS011;2279;51.448;7.306;2023-06-22T04:38:38;17.83;;;14.80;;
4533;SDS011;2279;51.448;7.306;2023-06-22T04:41:04;15.87;;;14.30;;
4533;SDS011;2279;51.448;7.306;2023-06-22T04:43:31;17.20;;;14.33;;
4533;SDS011;2279;51.448;7.306;2023-06-22T04:45:57;20.60;;;14.80;;
4533;SDS011;2279;51.448;7.306;2023-06-22T04:48:29;16.70;;;14.53;;
4533;SDS011;2279;51.448;7.306;2023-06-22T04:50:57;17.90;;;15.17;;
4533;SDS011;2279;51.448;7.306;2023-06-22T04:53:27;14.53;;;13.03;;
4533;SDS011;2279;51.448;7.306;2023-06-22T04:55:54;14.40;;;12.60;;
4533;SDS011;2279;51.448;7.306;2023-06-22T04:58:20;17.30;;;13.23;;
4533;SDS011;2279;51.448;7.306;2023-06-22T05:00:47;13.43;;;12.10;;
4533;SDS011;2279;51.448;7.306;2023-06-22T05:03:13;14.77;;;12.80;;
4533;SDS011;2279;51.448;7.306;2023-06-22T05:05:39;16.17;;;13.20;;
4533;SDS011;2279;51.448;7.306;2023-06-22T05:08:05;15.30;;;13.80;;
4533;SDS011;2279;51.448;7.306;2023-06-22T05:10:32;17.20;;;15.60;;
4533;SDS011;2279;51.448;7.306;2023-06-22T05:12:58;16.27;;;13.60;;
4533;SDS011;2279;51.448;7.306;2023-06-22T05:15:24;13.80;;;12.40;;
4533;SDS011;2279;51.448;7.306;2023-06-22T05:17:53;14.13;;;12.57;;
4533;SDS011;2279;51.448;7.306;2023-06-22T05:20:19;14.20;;;12.70;;
4533;SDS011;2279;51.448;7.306;2023-06-22T05:22:46;15.90;;;13.77;;
4533;SDS011;2279;51.448;7.306;2023-06-22T05:25:12;15.40;;;12.87;;
4533;SDS011;2279;51.448;7.306;2023-06-22T05:27:38;14.37;;;11.20;;
4533;SDS011;2279;51.448;7.306;2023-06-22T05:30:08;12.57;;;11.10;;
4533;SDS011;2279;51.448;7.306;2023-06-22T05:32:35;15.80;;;12.57;;
4533;SDS011;2279;51.448;7.306;2023-06-22T05:35:01;17.03;;;12.30;;
4533;SDS011;2279;51.448;7.306;2023-06-22T05:37:28;13.60;;;12.40;;
4533;SDS011;2279;51.448;7.306;2023-06-22T05:39:54;16.27;;;12.70;;
4533;SDS011;2279;51.448;7.306;2023-06-22T05:42:20;12.67;;;11.00;;
4533;SDS011;2279;51.448;7.306;2023-06-22T05:44:46;13.70;;;12.40;;
4533;SDS011;2279;51.448;7.306;2023-06-22T05:47:12;15.07;;;12.33;;
4533;SDS011;2279;51.448;7.306;2023-06-22T05:49:38;12.80;;;11.30;;
4533;SDS011;2279;51.448;7.306;2023-06-22T05:52:04;13.00;;;9.80;;
4533;SDS011;2279;51.448;7.306;2023-06-22T05:54:30;12.57;;;9.40;;
4533;SDS011;2279;51.448;7.306;2023-06-22T05:56:56;11.73;;;10.10;;
4533;SDS011;2279;51.448;7.306;2023-06-22T05:59:22;11.20;;;10.20;;
4533;SDS011;2279;51.448;7.306;2023-06-22T06:01:48;20.90;;;10.53;;
4533;SDS011;2279;51.448;7.306;2023-06-22T06:04:16;12.23;;;11.10;;
4533;SDS011;2279;51.448;7.306;2023-06-22T06:06:42;13.57;;;11.20;;
4533;SDS011;2279;51.448;7.306;2023-06-22T06:09:08;15.10;;;11.80;;
4533;SDS011;2279;51.448;7.306;2023-06-22T06:11:34;12.90;;;9.87;;
4533;SDS011;2279;51.448;7.306;2023-06-22T06:14:00;9.33;;;8.33;;
4533;SDS011;2279;51.448;7.306;2023-06-22T06:16:26;10.37;;;9.17;;
4533;SDS011;2279;51.448;7.306;2023-06-22T06:18:52;12.00;;;10.70;;
4533;SDS011;2279;51.448;7.306;2023-06-22T06:21:19;9.67;;;8.73;;
4533;SDS011;2279;51.448;7.306;2023-06-22T06:23:45;9.47;;;8.63;;
4533;SDS011;2279;51.448;7.306;2023-06-22T06:26:12;14.80;;;11.67;;
4533;SDS011;2279;51.448;7.306;2023-06-22T06:28:40;12.00;;;10.70;;
4533;SDS011;2279;51.448;7.306;2023-06-22T06:31:06;14.27;;;11.23;;
4533;SDS011;2279;51.448;7.306;2023-06-22T06:33:33;13.17;;;11.70;;
4533;SDS011;2279;51.448;7.306;2023-06-22T06:35:59;12.10;;;10.80;;
4533;SDS011;2279;51.448;7.306;2023-06-22T06:38:28;14.37;;;10.53;;
4533;SDS011;2279;51.448;7.306;2023-06-22T06:40:54;13.43;;;11.93;;
4533;SDS011;2279;51.448;7.306;2023-06-22T06:43:20;12.33;;;10.50;;
4533;SDS011;2279;51.448;7.306;2023-06-22T06:45:46;14.00;;;12.50;;
4533;SDS011;2279;51.448;7.306;2023-06-22T06:48:12;13.07;;;11.87;;
4533;SDS011;2279;51.448;7.306;2023-06-22T06:50:38;12.53;;;11.10;;
4533;SDS011;2279;51.448;7.306;2023-06-22T06:53:04;12.77;;;11.57;;
4533;SDS011;2279;51.448;7.306;2023-06-22T06:55:30;11.97;;;10.53;;
4533;SDS011;2279;51.448;7.306;2023-06-22T06:57:58;15.43;;;11.60;;
4533;SDS011;2279;51.448;7.306;2023-06-22T07:00:24;14.27;;;11.77;;
4533;SDS011;2279;51.448;7.306;2023-06-22T07:02:51;11.97;;;10.80;;
4533;SDS011;2279;51.448;7.306;2023-06-22T07:05:17;12.70;;;11.23;;
4533;SDS011;2279;51.448;7.306;2023-06-22T07:07:43;11.37;;;9.80;;
4533;SDS011;2279;51.448;7.306;2023-06-22T07:10:09;12.67;;;11.43;;
4533;SDS011;2279;51.448;7.306;2023-06-22T07:12:35;13.60;;;12.40;;
4533;SDS011;2279;51.448;7.306;2023-06-22T07:15:02;13.77;;;12.57;;
4533;SDS011;2279;51.448;7.306;2023-06-22T07:17:28;12.87;;;11.67;;
4533;SDS011;2279;51.448;7.306;2023-06-22T07:19:54;13.17;;;11.57;;
4533;SDS011;2279;51.448;7.306;2023-06-22T07:22:20;13.77;;;11.10;;
4533;SDS011;2279;51.448;7.306;2023-06-22T07:24:46;13.30;;;11.57;;
4533;SDS011;2279;51.448;7.306;2023-06-22T07:27:12;14.40;;;11.90;;
4533;SDS011;2279;51.448;7.306;2023-06-22T07:29:41;12.03;;;10.90;;
4533;SDS011;2279;51.448;7.306;2023-06-22T07:32:08;14.90;;;12.80;;
4533;SDS011;2279;51.448;7.306;2023-06-22T07:34:34;17.63;;;12.73;;
4533;SDS011;2279;51.448;7.306;2023-06-22T07:37:00;12.10;;;10.57;;
4533;SDS011;2279;51.448;7.306;2023-06-22T07:39:26;16.50;;;12.33;;
4533;SDS011;2279;51.448;7.306;2023-06-22T07:41:53;13.10;;;11.80;;
4533;SDS011;2279;51.448;7.306;2023-06-22T07:44:19;14.53;;;13.13;;
4533;SDS011;2279;51.448;7.306;2023-06-22T07:46:45;15.77;;;14.00;;
4533;SDS011;2279;51.448;7.306;2023-06-22T07:49:11;15.80;;;13.93;;
4533;SDS011;2279;51.448;7.306;2023-06-22T07:51:37;15.83;;;14.23;;
4533;SDS011;2279;51.448;7.306;2023-06-22T07:54:03;15.23;;;13.33;;
4533;SDS011;2279;51.448;7.306;2023-06-22T07:56:29;14.57;;;12.87;;
4533;SDS011;2279;51.448;7.306;2023-06-22T07:58:55;15.17;;;13.67;;
4533;SDS011;2279;51.448;7.306;2023-06-22T08:01:23;16.03;;;14.20;;
4533;SDS011;2279;51.448;7.306;2023-06-22T08:03:49;19.17;;;15.00;;
4533;SDS011;2279;51.448;7.306;2023-06-22T08:06:15;16.83;;;15.13;;
4533;SDS011;2279;51.448;7.306;2023-06-22T08:08:41;19.57;;;17.37;;
4533;SDS011;2279;51.448;7.306;2023-06-22T08:11:08;21.03;;;17.57;;
4533;SDS011;2279;51.448;7.306;2023-06-22T08:13:34;23.77;;;18.97;;
4533;SDS011;2279;51.448;7.306;2023-06-22T08:16:00;28.67;;;20.10;;
4533;SDS011;2279;51.448;7.306;2023-06-22T08:18:26;22.20;;;19.13;;
4533;SDS011;2279;51.448;7.306;2023-06-22T08:20:52;23.77;;;21.37;;
4533;SDS011;2279;51.448;7.306;2023-06-22T08:23:18;23.47;;;18.27;;
4533;SDS011;2279;51.448;7.306;2023-06-22T08:25:45;22.53;;;20.20;;
4533;SDS011;2279;51.448;7.306;2023-06-22T08:28:12;29.33;;;20.70;;
4533;SDS011;2279;51.448;7.306;2023-06-22T08:30:38;22.63;;;20.00;;
4533;SDS011;2279;51.448;7.306;2023-06-22T08:33:04;28.83;;;21.67;;
4533;SDS011;2279;51.448;7.306;2023-06-22T08:35:30;24.43;;;21.83;;
4533;SDS011;2279;51.448;7.306;2023-06-22T08:37:56;26.20;;;22.33;;
4533;SDS011;2279;51.448;7.306;2023-06-22T08:40:24;26.23;;;22.20;;
4533;SDS011;2279;51.448;7.306;2023-06-22T08:42:50;25.20;;;21.33;;
4533;SDS011;2279;51.448;7.306;2023-06-22T08:45:16;28.20;;;22.00;;
4533;SDS011;2279;51.448;7.306;2023-06-22T08:47:42;24.63;;;22.20;;
4533;SDS011;2279;51.448;7.306;2023-06-22T08:50:09;23.83;;;21.27;;
4533;SDS011;2279;51.448;7.306;2023-06-22T08:52:35;28.40;;;21.87;;
4533;SDS011;2279;51.448;7.306;2023-06-22T08:55:02;23.90;;;21.37;;
4533;SDS011;2279;51.448;7.306;2023-06-22T08:57:28;26.37;;;23.63;;
4533;SDS011;2279;51.448;7.306;2023-06-22T08:59:55;23.23;;;20.83;;
4533;SDS011;2279;51.448;7.306;2023-06-22T09:02:23;23.33;;;20.20;;
4533;SDS011;2279;51.448;7.306;2023-06-22T09:04:49;24.90;;;20.83;;
4533;SDS011;2279;51.448;7.306;2023-06-22T09:07:20;22.27;;;19.07;;
4533;SDS011;2279;51.448;7.306;2023-06-22T09:09:48;20.27;;;18.27;;
4533;SDS011;2279;51.448;7.306;2023-06-22T09:12:14;29.73;;;18.00;;
4533;SDS011;2279;51.448;7.306;2023-06-22T09:14:40;18.27;;;16.57;;
4533;SDS011;2279;51.448;7.306;2023-06-22T09:17:06;17.43;;;15.33;;
4533;SDS011;2279;51.448;7.306;2023-06-22T09:19:32;14.00;;;12.70;;
4533;SDS011;2279;51.448;7.306;2023-06-22T09:21:58;16.70;;;11.90;;
4533;SDS011;2279;51.448;7.306;2023-06-22T09:24:25;16.33;;;14.60;;
4533;SDS011;2279;51.448;7.306;2023-06-22T09:26:51;12.53;;;11.40;;
4533;SDS011;2279;51.448;7.306;2023-06-22T09:29:16;14.57;;;11.67;;
4533;SDS011;2279;51.448;7.306;2023-06-22T09:31:42;17.90;;;11.43;;
4533;SDS011;2279;51.448;7.306;2023-06-22T09:34:09;11.30;;;10.20;;
4533;SDS011;2279;51.448;7.306;2023-06-22T09:36:35;11.47;;;10.10;;
4533;SDS011;2279;51.448;7.306;2023-06-22T09:39:01;10.17;;;9.17;;
4533;SDS011;2279;51.448;7.306;2023-06-22T09:41:31;9.90;;;8.90;;
4533;SDS011;2279;51.448;7.306;2023-06-22T09:43:57;9.77;;;8.73;;
4533;SDS011;2279;51.448;7.306;2023-06-22T09:46:23;9.53;;;8.73;;
4533;SDS011;2279;51.448;7.306;2023-06-22T09:48:53;10.90;;;8.40;;
4533;SDS011;2279;51.448;7.306;2023-06-22T09:51:19;8.53;;;7.80;;
4533;SDS011;2279;51.448;7.306;2023-06-22T09:53:46;9.00;;;8.20;;
4533;SDS011;2279;51.448;7.306;2023-06-22T09:56:12;11.23;;;7.90;;
4533;SDS011;2279;51.448;7.306;2023-06-22T09:58:42;10.03;;;8.80;;
4533;SDS011;2279;51.448;7.306;2023-06-22T10:01:08;9.07;;;8.03;;
4533;SDS011;2279;51.448;7.306;2023-06-22T10:03:35;8.07;;;7.33;;
4533;SDS011;2279;51.448;7.306;2023-06-22T10:06:01;7.83;;;7.23;;
4533;SDS011;2279;51.448;7.306;2023-06-22T10:08:27;8.57;;;7.70;;
4533;SDS011;2279;51.448;7.306;2023-06-22T10:10:53;8.47;;;7.67;;
4533;SDS011;2279;51.448;7.306;2023-06-22T10:13:19;8.47;;;7.77;;
4533;SDS011;2279;51.448;7.306;2023-06-22T10:15:45;8.50;;;7.80;;
4533;SDS011;2279;51.448;7.306;2023-06-22T10:18:15;8.70;;;7.90;;
4533;SDS011;2279;51.448;7.306;2023-06-22T10:20:41;8.27;;;7.67;;
4533;SDS011;2279;51.448;7.306;2023-06-22T10:23:07;8.63;;;7.80;;
4533;SDS011;2279;51.448;7.306;2023-06-22T10:25:33;9.77;;;8.87;;
4533;SDS011;2279;51.448;7.306;2023-06-22T10:27:59;9.77;;;8.87;;
4533;SDS011;2279;51.448;7.306;2023-06-22T10:30:25;8.83;;;8.10;;
4533;SDS011;2279;51.448;7.306;2023-06-22T10:32:51;8.97;;;8.17;;
4533;SDS011;2279;51.448;7.306;2023-06-22T10:35:17;9.30;;;8.27;;
4533;SDS011;2279;51.448;7.306;2023-06-22T10:37:44;8.87;;;8.17;;
4533;SDS011;2279;51.448;7.306;2023-06-22T10:40:11;9.00;;;8.27;;
4533;SDS011;2279;51.448;7.306;2023-06-22T10:42:37;10.40;;;9.30;;
4533;SDS011;2279;51.448;7.306;2023-06-22T10:45:03;10.40;;;9.30;;
4533;SDS011;2279;51.448;7.306;2023-06-22T10:47:29;9.83;;;8.90;;
4533;SDS011;2279;51.448;7.306;2023-06-22T10:49:55;10.53;;;9.50;;
4533;SDS011;2279;51.448;7.306;2023-06-22T10:52:21;10.20;;;9.20;;
4533;SDS011;2279;51.448;7.306;2023-06-22T10:54:47;9.43;;;8.53;;
4533;SDS011;2279;51.448;7.306;2023-06-22T10:57:13;10.50;;;9.53;;
4533;SDS011;2279;51.448;7.306;2023-06-22T10:59:39;9.33;;;8.53;;
4533;SDS011;2279;51.448;7.306;2023-06-22T11:02:05;11.27;;;10.23;;
4533;SDS011;2279;51.448;7.306;2023-06-22T11:04:31;10.57;;;9.57;;
4533;SDS011;2279;51.448;7.306;2023-06-22T11:06:57;10.07;;;9.07;;
4533;SDS011;2279;51.448;7.306;2023-06-22T11:09:23;10.70;;;9.80;;
4533;SDS011;2279;51.448;7.306;2023-06-22T11:11:50;11.10;;;9.80;;
4533;SDS011;2279;51.448;7.306;2023-06-22T11:14:18;11.03;;;9.93;;
4533;SDS011;2279;51.448;7.306;2023-06-22T11:16:44;14.70;;;9.53;;
4533;SDS011;2279;51.448;7.306;2023-06-22T11:19:11;17.60;;;9.70;;
4533;SDS011;2279;51.448;7.306;2023-06-22T11:21:37;13.23;;;9.93;;
4533;SDS011;2279;51.448;7.306;2023-06-22T11:24:03;15.93;;;9.50;;
4533;SDS011;2279;51.448;7.306;2023-06-22T11:26:29;10.77;;;9.87;;
4533;SDS011;2279;51.448;7.306;2023-06-22T11:28:56;18.07;;;10.20;;
4533;SDS011;2279;51.448;7.306;2023-06-22T11:31:23;12.53;;;10.97;;
4533;SDS011;2279;51.448;7.306;2023-06-22T11:33:49;11.30;;;10.30;;
4533;SDS011;2279;51.448;7.306;2023-06-22T11:36:15;16.43;;;13.10;;
4533;SDS011;2279;51.448;7.306;2023-06-22T11:38:41;12.37;;;11.07;;
4533;SDS011;2279;51.448;7.306;2023-06-22T11:41:08;17.60;;;12.13;;
4533;SDS011;2279;51.448;7.306;2023-06-22T11:43:34;15.27;;;13.67;;
4533;SDS011;2279;51.448;7.306;2023-06-22T11:46:01;15.57;;;13.87;;
4533;SDS011;2279;51.448;7.306;2023-06-22T11:48:28;14.50;;;12.60;;
4533;SDS011;2279;51.448;7.306;2023-06-22T11:50:54;18.70;;;13.60;;
4533;SDS011;2279;51.448;7.306;2023-06-22T11:53:20;15.10;;;13.33;;
4533;SDS011;2279;51.448;7.306;2023-06-22T11:55:47;15.83;;;14.30;;
4533;SDS011;2279;51.448;7.306;2023-06-22T11:58:14;21.00;;;14.50;;
4533;SDS011;2279;51.448;7.306;2023-06-22T12:00:40;20.07;;;13.20;;
4533;SDS011;2279;51.448;7.306;2023-06-22T12:03:06;15.27;;;13.27;;
4533;SDS011;2279;51.448;7.306;2023-06-22T12:05:32;18.43;;;14.30;;
4533;SDS011;2279;51.448;7.306;2023-06-22T12:07:58;15.40;;;13.90;;
4533;SDS011;2279;51.448;7.306;2023-06-22T12:10:27;19.17;;;15.30;;
4533;SDS011;2279;51.448;7.306;2023-06-22T12:12:56;19.00;;;14.70;;
4533;SDS011;2279;51.448;7.306;2023-06-22T12:15:23;15.70;;;13.83;;
4533;SDS011;2279;51.448;7.306;2023-06-22T12:17:49;18.23;;;15.13;;
4533;SDS011;2279;51.448;7.306;2023-06-22T12:20:15;20.10;;;17.30;;
4533;SDS011;2279;51.448;7.306;2023-06-22T12:22:41;23.30;;;19.70;;
4533;SDS011;2279;51.448;7.306;2023-06-22T12:25:07;21.80;;;19.50;;
4533;SDS011;2279;51.448;7.306;2023-06-22T12:27:34;22.10;;;19.77;;
4533;SDS011;2279;51.448;7.306;2023-06-22T12:30:00;18.67;;;16.77;;
4533;SDS011;2279;51.448;7.306;2023-06-22T12:32:26;19.23;;;17.20;;
4533;SDS011;2279;51.448;7.306;2023-06-22T12:34:52;21.13;;;16.73;;
4533;SDS011;2279;51.448;7.306;2023-06-22T12:37:18;18.20;;;16.27;;
4533;SDS011;2279;51.448;7.306;2023-06-22T12:39:44;21.03;;;16.73;;
4533;SDS011;2279;51.448;7.306;2023-06-22T12:42:10;16.90;;;15.10;;
4533;SDS011;2279;51.448;7.306;2023-06-22T12:44:39;23.23;;;15.63;;
4533;SDS011;2279;51.448;7.306;2023-06-22T12:47:06;22.33;;;15.80;;
4533;SDS011;2279;51.448;7.306;2023-06-22T12:49:33;20.07;;;16.73;;
4533;SDS011;2279;51.448;7.306;2023-06-22T12:51:59;21.93;;;15.33;;
4533;SDS011;2279;51.448;7.306;2023-06-22T12:54:25;20.53;;;14.63;;
4533;SDS011;2279;51.448;7.306;2023-06-22T12:56:52;18.30;;;16.50;;
4533;SDS011;2279;51.448;7.306;2023-06-22T12:59:18;17.77;;;15.20;;
4533;SDS011;2279;51.448;7.306;2023-06-22T13:01:44;19.37;;;16.60;;
4533;SDS011;2279;51.448;7.306;2023-06-22T13:04:13;19.20;;;17.23;;
4533;SDS011;2279;51.448;7.306;2023-06-22T13:06:40;19.63;;;16.60;;
4533;SDS011;2279;51.448;7.306;2023-06-22T13:09:06;22.07;;;16.87;;
4533;SDS011;2279;51.448;7.306;2023-06-22T13:11:33;19.77;;;17.77;;
4533;SDS011;2279;51.448;7.306;2023-06-22T13:13:59;22.27;;;17.87;;
4533;SDS011;2279;51.448;7.306;2023-06-22T13:16:25;27.90;;;17.80;;
4533;SDS011;2279;51.448;7.306;2023-06-22T13:18:51;20.17;;;18.07;;
4533;SDS011;2279;51.448;7.306;2023-06-22T13:21:17;28.23;;;18.70;;
4533;SDS011;2279;51.448;7.306;2023-06-22T13:23:43;21.07;;;18.87;;
4533;SDS011;2279;51.448;7.306;2023-06-22T13:26:09;20.40;;;17.50;;
4533;SDS011;2279;51.448;7.306;2023-06-22T13:28:35;18.67;;;16.73;;
4533;SDS011;2279;51.448;7.306;2023-06-22T13:31:01;16.87;;;15.27;;
4533;SDS011;2279;51.448;7.306;2023-06-22T13:33:27;18.70;;;16.80;;
4533;SDS011;2279;51.448;7.306;2023-06-22T13:35:53;18.03;;;16.10;;
4533;SDS011;2279;51.448;7.306;2023-06-22T13:38:19;17.23;;;15.67;;
4533;SDS011;2279;51.448;7.306;2023-06-22T13:40:45;17.43;;;15.73;;
4533;SDS011;2279;51.448;7.306;2023-06-22T13:43:12;16.90;;;15.13;;
4533;SDS011;2279;51.448;7.306;2023-06-22T13:45:38;16.53;;;14.77;;
4533;SDS011;2279;51.448;7.306;2023-06-22T13:48:04;18.80;;;16.13;;
4533;SDS011;2279;51.448;7.306;2023-06-22T13:50:30;17.70;;;15.30;;
4533;SDS011;2279;51.448;7.306;2023-06-22T13:52:56;18.03;;;16.30;;
4533;SDS011;2279;51.448;7.306;2023-06-22T13:55:22;15.67;;;14.00;;
4533;SDS011;2279;51.448;7.306;2023-06-22T13:57:48;16.43;;;14.93;;
4533;SDS011;2279;51.448;7.306;2023-06-22T14:00:16;17.57;;;15.87;;
4533;SDS011;2279;51.448;7.306;2023-06-22T14:02:42;18.77;;;16.77;;
4533;SDS011;2279;51.448;7.306;2023-06-22T14:05:08;17.57;;;15.77;;
4533;SDS011;2279;51.448;7.306;2023-06-22T14:07:35;17.87;;;15.80;;
4533;SDS011;2279;51.448;7.306;2023-06-22T14:10:02;18.10;;;16.40;;
4533;SDS011;2279;51.448;7.306;2023-06-22T14:12:28;18.23;;;16.43;;
4533;SDS011;2279;51.448;7.306;2023-06-22T14:14:54;17.77;;;15.90;;
4533;SDS011;2279;51.448;7.306;2023-06-22T14:17:20;19.57;;;16.23;;
4533;SDS011;2279;51.448;7.306;2023-06-22T14:19:50;18.20;;;16.40;;
4533;SDS011;2279;51.448;7.306;2023-06-22T14:22:20;17.90;;;16.10;;
4533;SDS011;2279;51.448;7.306;2023-06-22T14:24:46;17.67;;;15.90;;
4533;SDS011;2279;51.448;7.306;2023-06-22T14:27:13;18.27;;;16.47;;
4533;SDS011;2279;51.448;7.306;2023-06-22T14:29:38;16.83;;;15.20;;
4533;SDS011;2279;51.448;7.306;2023-06-22T14:32:05;14.50;;;13.10;;
4533;SDS011;2279;51.448;7.306;2023-06-22T14:34:31;17.60;;;13.77;;
4533;SDS011;2279;51.448;7.306;2023-06-22T14:36:57;15.33;;;13.83;;
4533;SDS011;2279;51.448;7.306;2023-06-22T14:39:23;15.70;;;14.10;;
4533;SDS011;2279;51.448;7.306;2023-06-22T14:41:49;15.63;;;14.03;;
4533;SDS011;2279;51.448;7.306;2023-06-22T14:44:15;15.30;;;13.33;;
4533;SDS011;2279;51.448;7.306;2023-06-22T14:46:41;16.67;;;14.97;;
4533;SDS011;2279;51.448;7.306;2023-06-22T14:49:07;15.97;;;14.37;;
4533;SDS011;2279;51.448;7.306;2023-06-22T14:51:33;16.73;;;15.03;;
4533;SDS011;2279;51.448;7.306;2023-06-22T14:54:00;15.53;;;13.77;;
4533;SDS011;2279;51.448;7.306;2023-06-22T14:56:26;16.43;;;13.70;;
4533;SDS011;2279;51.448;7.306;2023-06-22T14:58:52;16.03;;;14.43;;
4533;SDS011;2279;51.448;7.306;2023-06-22T15:01:18;16.83;;;15.10;;